sensor_id;sensor_type;location;lat;lon;timestamp;pressure;altitude;pressure_sealevel;temperature;humidity
72359;BME280;60317;48.880;-0.862;2023-09-19T00:01:59;100173.44;;;21.30;53.85
72359;BME280;60317;48.880;-0.862;2023-09-19T00:04:27;100181.84;;;21.27;53.66
72359;BME280;60317;48.880;-0.862;2023-09-19T00:06:53;100181.13;;;21.25;53.66
72359;BME280;60317;48.880;-0.862;2023-09-19T00:09:20;100183.09;;;21.23;53.69
72359;BME280;60317;48.880;-0.862;2023-09-19T00:11:46;100183.41;;;21.20;53.62
72359;BME280;60317;48.880;-0.862;2023-09-19T00:14:12;100177.88;;;21.21;53.58
72359;BME280;60317;48.880;-0.862;2023-09-19T00:16:38;100184.09;;;21.41;53.41
72359;BME280;60317;48.880;-0.862;2023-09-19T00:19:05;100178.91;;;21.58;52.96
72359;BME280;60317;48.880;-0.862;2023-09-19T00:21:33;100177.44;;;21.73;52.54
72359;BME280;60317;48.880;-0.862;2023-09-19T00:23:59;100181.38;;;21.79;52.58
72359;BME280;60317;48.880;-0.862;2023-09-19T00:26:25;100182.47;;;21.86;52.47
72359;BME280;60317;48.880;-0.862;2023-09-19T00:28:52;100181.03;;;21.91;52.44
72359;BME280;60317;48.880;-0.862;2023-09-19T00:31:18;100182.59;;;21.94;52.53
72359;BME280;60317;48.880;-0.862;2023-09-19T00:33:45;100186.50;;;22.00;52.44
72359;BME280;60317;48.880;-0.862;2023-09-19T00:36:11;100185.66;;;21.99;52.52
72359;BME280;60317;48.880;-0.862;2023-09-19T00:38:39;100187.50;;;21.99;52.78
72359;BME280;60317;48.880;-0.862;2023-09-19T00:41:05;100187.03;;;22.03;52.55
72359;BME280;60317;48.880;-0.862;2023-09-19T00:43:31;100189.31;;;22.08;52.62
72359;BME280;60317;48.880;-0.862;2023-09-19T00:45:58;100183.75;;;22.09;52.43
72359;BME280;60317;48.880;-0.862;2023-09-19T00:48:24;100174.84;;;22.09;52.76
72359;BME280;60317;48.880;-0.862;2023-09-19T00:50:52;100182.53;;;21.76;53.44
72359;BME280;60317;48.880;-0.862;2023-09-19T00:53:19;100185.59;;;21.54;53.73
72359;BME280;60317;48.880;-0.862;2023-09-19T00:55:47;100193.13;;;21.40;53.75
72359;BME280;60317;48.880;-0.862;2023-09-19T00:58:14;100200.78;;;21.35;53.74
72359;BME280;60317;48.880;-0.862;2023-09-19T01:00:42;100200.19;;;21.32;53.74
72359;BME280;60317;48.880;-0.862;2023-09-19T01:03:09;100204.31;;;21.26;53.66
72359;BME280;60317;48.880;-0.862;2023-09-19T01:05:35;100203.75;;;21.23;53.69
72359;BME280;60317;48.880;-0.862;2023-09-19T01:08:02;100204.88;;;21.30;53.88
72359;BME280;60317;48.880;-0.862;2023-09-19T01:10:28;100210.91;;;21.51;53.13
72359;BME280;60317;48.880;-0.862;2023-09-19T01:13:00;100208.47;;;21.67;52.67
72359;BME280;60317;48.880;-0.862;2023-09-19T01:15:32;100212.13;;;21.76;52.44
72359;BME280;60317;48.880;-0.862;2023-09-19T01:18:02;100210.22;;;21.86;52.21
72359;BME280;60317;48.880;-0.862;2023-09-19T01:20:37;100200.88;;;21.90;52.39
72359;BME280;60317;48.880;-0.862;2023-09-19T01:23:09;100200.41;;;21.95;52.39
72359;BME280;60317;48.880;-0.862;2023-09-19T01:28:19;100202.66;;;22.00;52.38
72359;BME280;60317;48.880;-0.862;2023-09-19T01:30:48;100207.44;;;22.06;52.33
72359;BME280;60317;48.880;-0.862;2023-09-19T01:33:17;100200.06;;;22.08;52.38
72359;BME280;60317;48.880;-0.862;2023-09-19T01:35:44;100199.75;;;22.11;52.37
72359;BME280;60317;48.880;-0.862;2023-09-19T01:38:10;100208.69;;;22.11;52.52
72359;BME280;60317;48.880;-0.862;2023-09-19T01:40:39;100210.84;;;22.08;52.65
72359;BME280;60317;48.880;-0.862;2023-09-19T01:43:08;100205.53;;;21.88;53.13
72359;BME280;60317;48.880;-0.862;2023-09-19T01:45:41;100198.75;;;21.57;53.47
72359;BME280;60317;48.880;-0.862;2023-09-19T01:48:16;100194.84;;;21.41;53.62
72359;BME280;60317;48.880;-0.862;2023-09-19T01:50:48;100192.72;;;21.35;53.61
72359;BME280;60317;48.880;-0.862;2023-09-19T01:53:19;100195.84;;;21.31;53.76
72359;BME280;60317;48.880;-0.862;2023-09-19T01:55:48;100206.03;;;21.27;53.52
72359;BME280;60317;48.880;-0.862;2023-09-19T01:58:16;100201.91;;;21.23;53.62
72359;BME280;60317;48.880;-0.862;2023-09-19T02:00:44;100209.41;;;21.19;53.52
72359;BME280;60317;48.880;-0.862;2023-09-19T02:03:13;100209.41;;;21.19;53.61
72359;BME280;60317;48.880;-0.862;2023-09-19T02:05:40;100210.56;;;21.17;53.63
72359;BME280;60317;48.880;-0.862;2023-09-19T02:08:06;100207.88;;;21.17;53.81
72359;BME280;60317;48.880;-0.862;2023-09-19T02:10:33;100205.47;;;21.14;53.78
72359;BME280;60317;48.880;-0.862;2023-09-19T02:12:59;100205.16;;;21.27;53.66
72359;BME280;60317;48.880;-0.862;2023-09-19T02:15:25;100207.00;;;21.46;53.05
72359;BME280;60317;48.880;-0.862;2023-09-19T02:17:52;100207.19;;;21.62;52.80
72359;BME280;60317;48.880;-0.862;2023-09-19T02:20:19;100210.69;;;21.72;52.54
72359;BME280;60317;48.880;-0.862;2023-09-19T02:22:46;100201.22;;;21.78;52.45
72359;BME280;60317;48.880;-0.862;2023-09-19T02:25:12;100199.06;;;21.81;52.45
72359;BME280;60317;48.880;-0.862;2023-09-19T02:27:38;100201.47;;;21.84;52.53
72359;BME280;60317;48.880;-0.862;2023-09-19T02:30:05;100202.00;;;21.88;52.56
72359;BME280;60317;48.880;-0.862;2023-09-19T02:32:32;100203.41;;;21.92;52.51
72359;BME280;60317;48.880;-0.862;2023-09-19T02:34:58;100193.34;;;21.94;52.53
72359;BME280;60317;48.880;-0.862;2023-09-19T02:37:26;100195.88;;;21.96;52.59
72359;BME280;60317;48.880;-0.862;2023-09-19T02:39:52;100196.59;;;21.98;52.54
72359;BME280;60317;48.880;-0.862;2023-09-19T02:42:19;100188.19;;;22.01;52.61
72359;BME280;60317;48.880;-0.862;2023-09-19T02:44:45;100193.28;;;22.04;52.63
72359;BME280;60317;48.880;-0.862;2023-09-19T02:47:12;100196.84;;;21.77;53.35
72359;BME280;60317;48.880;-0.862;2023-09-19T02:49:38;100190.56;;;21.49;53.65
72359;BME280;60317;48.880;-0.862;2023-09-19T02:52:05;100188.19;;;21.36;53.62
72359;BME280;60317;48.880;-0.862;2023-09-19T02:54:32;100186.22;;;21.28;53.63
72359;BME280;60317;48.880;-0.862;2023-09-19T02:56:59;100188.47;;;21.23;53.80
72359;BME280;60317;48.880;-0.862;2023-09-19T02:59:25;100184.25;;;21.20;53.58
72359;BME280;60317;48.880;-0.862;2023-09-19T03:01:51;100192.59;;;21.17;53.47
72359;BME280;60317;48.880;-0.862;2023-09-19T03:04:18;100195.84;;;21.31;53.62
72359;BME280;60317;48.880;-0.862;2023-09-19T03:06:44;100199.31;;;21.51;52.83
72359;BME280;60317;48.880;-0.862;2023-09-19T03:09:11;100188.63;;;21.68;52.33
72359;BME280;60317;48.880;-0.862;2023-09-19T03:11:39;100185.22;;;21.76;52.27
72359;BME280;60317;48.880;-0.862;2023-09-19T03:14:05;100180.94;;;21.83;52.15
72359;BME280;60317;48.880;-0.862;2023-09-19T03:16:31;100180.63;;;21.86;52.19
72359;BME280;60317;48.880;-0.862;2023-09-19T03:18:58;100180.19;;;21.91;52.15
72359;BME280;60317;48.880;-0.862;2023-09-19T03:21:24;100176.50;;;21.92;52.22
72359;BME280;60317;48.880;-0.862;2023-09-19T03:23:50;100177.22;;;21.94;52.33
72359;BME280;60317;48.880;-0.862;2023-09-19T03:26:17;100167.97;;;21.97;52.34
72359;BME280;60317;48.880;-0.862;2023-09-19T03:28:44;100179.44;;;21.99;52.43
72359;BME280;60317;48.880;-0.862;2023-09-19T03:31:11;100176.56;;;22.00;52.41
72359;BME280;60317;48.880;-0.862;2023-09-19T03:33:37;100180.69;;;22.04;52.35
72359;BME280;60317;48.880;-0.862;2023-09-19T03:36:04;100180.34;;;22.07;52.35
72359;BME280;60317;48.880;-0.862;2023-09-19T03:38:31;100179.34;;;21.90;52.92
72359;BME280;60317;48.880;-0.862;2023-09-19T03:40:58;100181.75;;;21.56;53.30
72359;BME280;60317;48.880;-0.862;2023-09-19T03:43:24;100181.41;;;21.41;53.43
72359;BME280;60317;48.880;-0.862;2023-09-19T03:45:52;100178.44;;;21.35;53.58
72359;BME280;60317;48.880;-0.862;2023-09-19T03:48:18;100180.84;;;21.28;53.70
72359;BME280;60317;48.880;-0.862;2023-09-19T03:50:45;100188.47;;;21.23;53.46
72359;BME280;60317;48.880;-0.862;2023-09-19T03:53:11;100186.09;;;21.20;53.35
72359;BME280;60317;48.880;-0.862;2023-09-19T03:55:37;100183.69;;;21.17;53.50
72359;BME280;60317;48.880;-0.862;2023-09-19T03:58:04;100181.28;;;21.14;53.36
72359;BME280;60317;48.880;-0.862;2023-09-19T04:00:30;100187.50;;;21.14;53.54
72359;BME280;60317;48.880;-0.862;2023-09-19T04:02:58;100184.19;;;21.30;53.29
72359;BME280;60317;48.880;-0.862;2023-09-19T04:05:24;100187.88;;;21.49;52.73
72359;BME280;60317;48.880;-0.862;2023-09-19T04:07:51;100189.25;;;21.62;52.49
72359;BME280;60317;48.880;-0.862;2023-09-19T04:10:17;100191.75;;;21.74;52.22
72359;BME280;60317;48.880;-0.862;2023-09-19T04:12:50;100187.75;;;21.78;52.24
72359;BME280;60317;48.880;-0.862;2023-09-19T04:15:17;100188.00;;;21.84;52.29
72359;BME280;60317;48.880;-0.862;2023-09-19T04:17:43;100178.63;;;21.88;52.25
72359;BME280;60317;48.880;-0.862;2023-09-19T04:20:11;100180.31;;;21.89;52.28
72359;BME280;60317;48.880;-0.862;2023-09-19T04:22:37;100181.03;;;21.91;52.30
72359;BME280;60317;48.880;-0.862;2023-09-19T04:25:04;100181.72;;;21.93;52.41
72359;BME280;60317;48.880;-0.862;2023-09-19T04:27:30;100190.31;;;21.97;52.35
72359;BME280;60317;48.880;-0.862;2023-09-19T04:29:57;100190.19;;;21.99;52.33
72359;BME280;60317;48.880;-0.862;2023-09-19T04:32:23;100181.00;;;22.01;52.31
72359;BME280;60317;48.880;-0.862;2023-09-19T04:34:49;100188.19;;;22.01;52.31
72359;BME280;60317;48.880;-0.862;2023-09-19T04:37:17;100178.09;;;21.85;53.13
72359;BME280;60317;48.880;-0.862;2023-09-19T04:39:43;100177.69;;;21.52;53.41
72359;BME280;60317;48.880;-0.862;2023-09-19T04:42:10;100177.28;;;21.37;53.44
72359;BME280;60317;48.880;-0.862;2023-09-19T04:44:36;100179.00;;;21.29;53.58
72359;BME280;60317;48.880;-0.862;2023-09-19T04:47:03;100182.25;;;21.23;53.66
72359;BME280;60317;48.880;-0.862;2023-09-19T04:49:30;100181.69;;;21.19;53.56
72359;BME280;60317;48.880;-0.862;2023-09-19T04:51:56;100182.81;;;21.16;53.53
72359;BME280;60317;48.880;-0.862;2023-09-19T04:54:23;100183.25;;;21.12;53.43
72359;BME280;60317;48.880;-0.862;2023-09-19T04:56:50;100191.03;;;21.15;53.56
72359;BME280;60317;48.880;-0.862;2023-09-19T04:59:16;100184.66;;;21.35;53.14
72359;BME280;60317;48.880;-0.862;2023-09-19T05:01:43;100189.00;;;21.56;52.55
72359;BME280;60317;48.880;-0.862;2023-09-19T05:04:09;100185.41;;;21.65;52.33
72359;BME280;60317;48.880;-0.862;2023-09-19T05:06:35;100187.34;;;21.73;52.29
72359;BME280;60317;48.880;-0.862;2023-09-19T05:09:02;100192.84;;;21.81;52.08
72359;BME280;60317;48.880;-0.862;2023-09-19T05:11:29;100179.53;;;21.79;52.25
72359;BME280;60317;48.880;-0.862;2023-09-19T05:13:56;100180.06;;;21.83;52.23
72359;BME280;60317;48.880;-0.862;2023-09-19T05:16:22;100186.28;;;21.56;53.60
72359;BME280;60317;48.880;-0.862;2023-09-19T05:18:49;100176.31;;;21.38;53.75
72359;BME280;60317;48.880;-0.862;2023-09-19T05:21:15;100167.50;;;21.46;53.71
72359;BME280;60317;48.880;-0.862;2023-09-19T05:23:41;100176.94;;;21.60;53.35
72359;BME280;60317;48.880;-0.862;2023-09-19T05:26:08;100170.72;;;21.59;53.36
72359;BME280;60317;48.880;-0.862;2023-09-19T05:28:36;100177.22;;;21.57;53.43
72359;BME280;60317;48.880;-0.862;2023-09-19T05:31:02;100188.38;;;21.62;53.50
72359;BME280;60317;48.880;-0.862;2023-09-19T05:33:28;100181.78;;;21.47;53.63
72359;BME280;60317;48.880;-0.862;2023-09-19T05:35:55;100177.97;;;21.30;53.81
72359;BME280;60317;48.880;-0.862;2023-09-19T05:38:21;100171.78;;;21.19;54.33
72359;BME280;60317;48.880;-0.862;2023-09-19T05:40:47;100165.59;;;21.09;54.10
72359;BME280;60317;48.880;-0.862;2023-09-19T05:43:14;100174.09;;;21.05;54.06
72359;BME280;60317;48.880;-0.862;2023-09-19T05:45:42;100175.66;;;20.97;54.30
72359;BME280;60317;48.880;-0.862;2023-09-19T05:48:09;100172.41;;;20.94;54.40
72359;BME280;60317;48.880;-0.862;2023-09-19T05:50:35;100164.34;;;20.94;54.08
72359;BME280;60317;48.880;-0.862;2023-09-19T05:53:01;100177.75;;;21.13;53.68
72359;BME280;60317;48.880;-0.862;2023-09-19T05:55:28;100178.44;;;21.25;53.39
72359;BME280;60317;48.880;-0.862;2023-09-19T05:57:54;100169.78;;;21.31;53.32
72359;BME280;60317;48.880;-0.862;2023-09-19T06:00:21;100173.16;;;21.33;53.39
72359;BME280;60317;48.880;-0.862;2023-09-19T06:02:50;100171.06;;;21.37;53.30
72359;BME280;60317;48.880;-0.862;2023-09-19T06:05:17;100179.69;;;21.40;53.32
72359;BME280;60317;48.880;-0.862;2023-09-19T06:07:43;100176.03;;;21.41;53.51
72359;BME280;60317;48.880;-0.862;2023-09-19T06:10:10;100167.25;;;21.39;53.56
72359;BME280;60317;48.880;-0.862;2023-09-19T06:12:37;100170.31;;;21.44;53.41
72359;BME280;60317;48.880;-0.862;2023-09-19T06:15:04;100171.19;;;21.45;53.52
72359;BME280;60317;48.880;-0.862;2023-09-19T06:17:31;100171.47;;;21.52;53.34
72359;BME280;60317;48.880;-0.862;2023-09-19T06:19:59;100174.69;;;21.55;53.34
72359;BME280;60317;48.880;-0.862;2023-09-19T06:22:26;100175.53;;;21.56;53.38
72359;BME280;60317;48.880;-0.862;2023-09-19T06:24:52;100176.97;;;21.50;53.57
72359;BME280;60317;48.880;-0.862;2023-09-19T06:27:19;100176.75;;;21.24;54.00
72359;BME280;60317;48.880;-0.862;2023-09-19T06:29:45;100183.41;;;21.10;54.52
72359;BME280;60317;48.880;-0.862;2023-09-19T06:32:14;100182.44;;;21.02;54.38
72359;BME280;60317;48.880;-0.862;2023-09-19T06:34:40;100172.28;;;20.95;54.23
72359;BME280;60317;48.880;-0.862;2023-09-19T06:37:08;100182.88;;;20.97;54.17
72359;BME280;60317;48.880;-0.862;2023-09-19T06:39:34;100182.31;;;20.93;54.23
72359;BME280;60317;48.880;-0.862;2023-09-19T06:42:01;100181.31;;;20.94;54.49
72359;BME280;60317;48.880;-0.862;2023-09-19T06:44:28;100183.16;;;21.04;54.36
72359;BME280;60317;48.880;-0.862;2023-09-19T06:46:55;100177.59;;;21.15;54.26
72359;BME280;60317;48.880;-0.862;2023-09-19T06:49:23;100172.06;;;21.26;54.14
72359;BME280;60317;48.880;-0.862;2023-09-19T06:51:50;100176.84;;;21.32;54.29
72359;BME280;60317;48.880;-0.862;2023-09-19T06:54:18;100167.09;;;21.31;54.37
72359;BME280;60317;48.880;-0.862;2023-09-19T06:56:44;100169.63;;;21.33;54.54
72359;BME280;60317;48.880;-0.862;2023-09-19T06:59:11;100165.84;;;21.35;54.59
72359;BME280;60317;48.880;-0.862;2023-09-19T07:01:37;100169.22;;;21.37;54.67
72359;BME280;60317;48.880;-0.862;2023-09-19T07:04:04;100170.22;;;21.27;55.26
72359;BME280;60317;48.880;-0.862;2023-09-19T07:06:30;100170.66;;;21.22;55.53
72359;BME280;60317;48.880;-0.862;2023-09-19T07:08:56;100165.56;;;21.19;55.70
72359;BME280;60317;48.880;-0.862;2023-09-19T07:11:24;100165.56;;;21.19;55.79
72359;BME280;60317;48.880;-0.862;2023-09-19T07:13:51;100171.66;;;21.21;55.88
72359;BME280;60317;48.880;-0.862;2023-09-19T07:16:17;100167.00;;;21.13;56.04
72359;BME280;60317;48.880;-0.862;2023-09-19T07:18:43;100174.34;;;21.11;56.24
72359;BME280;60317;48.880;-0.862;2023-09-19T07:21:10;100168.69;;;21.14;55.79
72359;BME280;60317;48.880;-0.862;2023-09-19T07:23:36;100168.25;;;21.19;55.97
72359;BME280;60317;48.880;-0.862;2023-09-19T07:26:03;100156.25;;;21.13;56.04
72359;BME280;60317;48.880;-0.862;2023-09-19T07:28:30;100162.59;;;21.12;55.95
72359;BME280;60317;48.880;-0.862;2023-09-19T07:30:57;100156.00;;;21.07;56.21
72359;BME280;60317;48.880;-0.862;2023-09-19T07:33:23;100156.28;;;21.04;56.17
72359;BME280;60317;48.880;-0.862;2023-09-19T07:35:50;100150.19;;;21.02;56.28
72359;BME280;60317;48.880;-0.862;2023-09-19T07:38:16;100162.34;;;21.06;56.28
72359;BME280;60317;48.880;-0.862;2023-09-19T07:40:42;100150.34;;;21.10;56.07
72359;BME280;60317;48.880;-0.862;2023-09-19T07:43:09;100157.69;;;21.08;56.58
72359;BME280;60317;48.880;-0.862;2023-09-19T07:45:36;100155.72;;;21.10;56.50
72359;BME280;60317;48.880;-0.862;2023-09-19T07:48:03;100158.41;;;21.10;56.85
72359;BME280;60317;48.880;-0.862;2023-09-19T07:50:29;100160.09;;;21.11;56.77
72359;BME280;60317;48.880;-0.862;2023-09-19T07:52:56;100150.47;;;21.08;57.05
72359;BME280;60317;48.880;-0.862;2023-09-19T07:55:22;100143.50;;;21.15;56.66
72359;BME280;60317;48.880;-0.862;2023-09-19T07:57:49;100145.50;;;21.13;56.87
72359;BME280;60317;48.880;-0.862;2023-09-19T08:00:15;100160.47;;;21.16;56.89
72359;BME280;60317;48.880;-0.862;2023-09-19T08:02:43;100158.78;;;21.15;56.77
72359;BME280;60317;48.880;-0.862;2023-09-19T08:05:12;100157.09;;;21.14;56.81
72359;BME280;60317;48.880;-0.862;2023-09-19T08:07:39;100173.91;;;21.16;57.17
72359;BME280;60317;48.880;-0.862;2023-09-19T08:10:06;100165.34;;;21.03;56.83
72359;BME280;60317;48.880;-0.862;2023-09-19T08:12:33;100172.69;;;20.91;56.65
72359;BME280;60317;48.880;-0.862;2023-09-19T08:14:59;100168.03;;;20.83;56.64
72359;BME280;60317;48.880;-0.862;2023-09-19T08:17:25;100169.44;;;20.87;56.60
72359;BME280;60317;48.880;-0.862;2023-09-19T08:19:53;100164.06;;;20.97;56.53
72359;BME280;60317;48.880;-0.862;2023-09-19T08:22:20;100165.47;;;21.01;56.79
72359;BME280;60317;48.880;-0.862;2023-09-19T08:24:46;100155.84;;;20.98;56.83
72359;BME280;60317;48.880;-0.862;2023-09-19T08:27:13;100154.25;;;21.35;56.46
72359;BME280;60317;48.880;-0.862;2023-09-19T08:29:39;100158.84;;;21.52;55.69
72359;BME280;60317;48.880;-0.862;2023-09-19T08:32:06;100171.28;;;21.53;55.86
72359;BME280;60317;48.880;-0.862;2023-09-19T08:34:32;100174.06;;;21.71;55.29
72359;BME280;60317;48.880;-0.862;2023-09-19T08:37:00;100176.25;;;21.85;55.01
72359;BME280;60317;48.880;-0.862;2023-09-19T08:39:27;100176.34;;;21.93;54.94
72359;BME280;60317;48.880;-0.862;2023-09-19T08:41:56;100174.06;;;21.99;54.88
72359;BME280;60317;48.880;-0.862;2023-09-19T08:44:23;100168.22;;;22.03;54.91
72359;BME280;60317;48.880;-0.862;2023-09-19T08:46:49;100170.91;;;22.03;54.86
72359;BME280;60317;48.880;-0.862;2023-09-19T08:49:19;100175.69;;;22.09;54.94
72359;BME280;60317;48.880;-0.862;2023-09-19T08:51:47;100170.59;;;22.16;54.73
72359;BME280;60317;48.880;-0.862;2023-09-19T08:54:20;100170.53;;;21.98;55.13
72359;BME280;60317;48.880;-0.862;2023-09-19T08:56:47;100178.63;;;21.61;55.75
72359;BME280;60317;48.880;-0.862;2023-09-19T08:59:14;100175.56;;;21.46;55.81
72359;BME280;60317;48.880;-0.862;2023-09-19T09:01:41;100176.88;;;21.42;55.57
72359;BME280;60317;48.880;-0.862;2023-09-19T09:04:08;100174.31;;;21.40;55.45
72359;BME280;60317;48.880;-0.862;2023-09-19T09:06:35;100170.22;;;21.36;54.94
72359;BME280;60317;48.880;-0.862;2023-09-19T09:09:01;100172.78;;;21.38;55.02
72359;BME280;60317;48.880;-0.862;2023-09-19T09:11:29;100165.84;;;21.35;54.80
72359;BME280;60317;48.880;-0.862;2023-09-19T09:13:59;100158.91;;;21.70;54.64
72359;BME280;60317;48.880;-0.862;2023-09-19T09:16:25;100160.50;;;21.90;53.87
72359;BME280;60317;48.880;-0.862;2023-09-19T09:18:51;100159.16;;;22.04;53.59
72359;BME280;60317;48.880;-0.862;2023-09-19T09:21:18;100176.09;;;22.14;53.49
72359;BME280;60317;48.880;-0.862;2023-09-19T09:23:44;100164.38;;;22.06;53.89
72359;BME280;60317;48.880;-0.862;2023-09-19T09:26:11;100157.16;;;22.06;54.17
72359;BME280;60317;48.880;-0.862;2023-09-19T09:28:44;100155.81;;;22.20;53.97
72359;BME280;60317;48.880;-0.862;2023-09-19T09:31:15;100156.00;;;22.36;53.70
72359;BME280;60317;48.880;-0.862;2023-09-19T09:33:52;100153.31;;;22.09;55.14
72359;BME280;60317;48.880;-0.862;2023-09-19T09:36:19;100163.66;;;22.04;55.66
72359;BME280;60317;48.880;-0.862;2023-09-19T09:38:59;100158.94;;;21.60;57.45
72359;BME280;60317;48.880;-0.862;2023-09-19T09:41:28;100153.22;;;21.46;58.01
72359;BME280;60317;48.880;-0.862;2023-09-19T09:44:05;100152.53;;;21.34;58.30
72359;BME280;60317;48.880;-0.862;2023-09-19T09:46:38;100163.69;;;21.29;58.37
72359;BME280;60317;48.880;-0.862;2023-09-19T09:49:09;100154.50;;;21.32;57.98
72359;BME280;60317;48.880;-0.862;2023-09-19T09:51:36;100149.56;;;21.27;57.80
72359;BME280;60317;48.880;-0.862;2023-09-19T09:54:09;100146.75;;;21.19;57.68
72359;BME280;60317;48.880;-0.862;2023-09-19T09:56:35;100137.88;;;21.09;57.76
72359;BME280;60317;48.880;-0.862;2023-09-19T09:59:21;100140.81;;;21.25;56.60
72359;BME280;60317;48.880;-0.862;2023-09-19T10:01:50;100136.22;;;21.73;55.92
72359;BME280;60317;48.880;-0.862;2023-09-19T10:06:52;100131.22;;;22.15;54.36
72359;BME280;60317;48.880;-0.862;2023-09-19T10:09:18;100132.28;;;22.22;54.15
72359;BME280;60317;48.880;-0.862;2023-09-19T10:11:45;100141.03;;;22.24;54.23
72359;BME280;60317;48.880;-0.862;2023-09-19T10:14:12;100129.97;;;22.27;54.18
72359;BME280;60317;48.880;-0.862;2023-09-19T10:16:45;100141.81;;;22.34;53.99
72359;BME280;60317;48.880;-0.862;2023-09-19T10:19:14;100142.22;;;22.39;53.95
72359;BME280;60317;48.880;-0.862;2023-09-19T10:21:41;100132.13;;;22.42;54.02
72359;BME280;60317;48.880;-0.862;2023-09-19T10:24:08;100130.28;;;22.42;53.94
72359;BME280;60317;48.880;-0.862;2023-09-19T10:26:35;100147.97;;;22.45;53.93
72359;BME280;60317;48.880;-0.862;2023-09-19T10:29:02;100137.34;;;22.25;54.72
72359;BME280;60317;48.880;-0.862;2023-09-19T10:31:29;100136.69;;;21.96;54.90
72359;BME280;60317;48.880;-0.862;2023-09-19T10:33:57;100129.41;;;21.78;54.50
72359;BME280;60317;48.880;-0.862;2023-09-19T10:36:24;100127.03;;;21.75;54.71
72359;BME280;60317;48.880;-0.862;2023-09-19T10:38:51;100125.34;;;21.74;54.79
72359;BME280;60317;48.880;-0.862;2023-09-19T10:41:20;100118.56;;;21.70;54.87
72359;BME280;60317;48.880;-0.862;2023-09-19T10:43:48;100125.63;;;21.71;55.22
72359;BME280;60317;48.880;-0.862;2023-09-19T10:46:14;100128.97;;;21.55;55.73
72359;BME280;60317;48.880;-0.862;2023-09-19T10:48:41;100129.16;;;21.44;55.60
72359;BME280;60317;48.880;-0.862;2023-09-19T10:51:10;100131.56;;;21.37;55.99
72359;BME280;60317;48.880;-0.862;2023-09-19T10:53:41;100132.13;;;21.41;56.14
72359;BME280;60317;48.880;-0.862;2023-09-19T10:56:09;100129.97;;;21.54;55.86
72359;BME280;60317;48.880;-0.862;2023-09-19T10:58:35;100126.34;;;21.46;56.19
72359;BME280;60317;48.880;-0.862;2023-09-19T11:01:04;100129.38;;;21.60;55.70
72359;BME280;60317;48.880;-0.862;2023-09-19T11:03:31;100124.53;;;21.91;54.99
72359;BME280;60317;48.880;-0.862;2023-09-19T11:06:02;100128.38;;;22.07;54.36
72359;BME280;60317;48.880;-0.862;2023-09-19T11:08:30;100128.25;;;22.08;54.43
72359;BME280;60317;48.880;-0.862;2023-09-19T11:10:56;100122.25;;;22.14;54.37
72359;BME280;60317;48.880;-0.862;2023-09-19T11:13:23;100128.97;;;22.01;54.94
72359;BME280;60317;48.880;-0.862;2023-09-19T11:16:04;100137.19;;;21.81;55.65
72359;BME280;60317;48.880;-0.862;2023-09-19T11:23:46;100142.16;;;21.49;57.02
72359;BME280;60317;48.880;-0.862;2023-09-19T11:26:39;100128.09;;;21.55;56.92
72359;BME280;60317;48.880;-0.862;2023-09-19T11:31:47;100133.50;;;21.55;57.22
72359;BME280;60317;48.880;-0.862;2023-09-19T11:36:55;100125.88;;;21.50;57.56
72359;BME280;60317;48.880;-0.862;2023-09-19T11:39:26;100111.03;;;21.46;57.51
72359;BME280;60317;48.880;-0.862;2023-09-19T11:41:52;100108.31;;;21.56;57.14
72359;BME280;60317;48.880;-0.862;2023-09-19T11:46:55;100105.13;;;21.70;56.95
72359;BME280;60317;48.880;-0.862;2023-09-19T11:49:25;100102.13;;;21.73;56.99
72359;BME280;60317;48.880;-0.862;2023-09-19T11:51:52;100099.16;;;21.76;56.93
72359;BME280;60317;48.880;-0.862;2023-09-19T11:54:18;100105.91;;;21.80;56.86
72359;BME280;60317;48.880;-0.862;2023-09-19T11:56:46;100112.44;;;21.78;57.16
72359;BME280;60317;48.880;-0.862;2023-09-19T11:59:13;100119.25;;;21.72;57.80
72359;BME280;60317;48.880;-0.862;2023-09-19T12:01:51;100104.88;;;21.63;58.01
72359;BME280;60317;48.880;-0.862;2023-09-19T12:04:18;100107.69;;;21.62;58.34
72359;BME280;60317;48.880;-0.862;2023-09-19T12:06:45;100107.22;;;21.76;58.29
72359;BME280;60317;48.880;-0.862;2023-09-19T12:09:22;100104.88;;;21.63;58.54
72359;BME280;60317;48.880;-0.862;2023-09-19T12:11:49;100098.53;;;21.55;58.87
72359;BME280;60317;48.880;-0.862;2023-09-19T12:14:21;100093.81;;;21.66;58.90
72359;BME280;60317;48.880;-0.862;2023-09-19T12:16:50;100094.25;;;21.62;58.91
72359;BME280;60317;48.880;-0.862;2023-09-19T12:19:17;100095.53;;;21.58;58.84
72359;BME280;60317;48.880;-0.862;2023-09-19T12:21:43;100099.81;;;21.51;58.90
72359;BME280;60317;48.880;-0.862;2023-09-19T12:24:11;100100.53;;;21.53;59.15
72359;BME280;60317;48.880;-0.862;2023-09-19T12:26:39;100106.25;;;21.67;59.33
72359;BME280;60317;48.880;-0.862;2023-09-19T12:29:06;100109.78;;;21.68;59.90
72359;BME280;60317;48.880;-0.862;2023-09-19T12:31:36;100095.53;;;21.85;59.79
72359;BME280;60317;48.880;-0.862;2023-09-19T12:34:02;100099.31;;;21.65;60.15
72359;BME280;60317;48.880;-0.862;2023-09-19T12:36:29;100092.47;;;21.53;60.18
72359;BME280;60317;48.880;-0.862;2023-09-19T12:38:55;100088.94;;;21.52;60.05
72359;BME280;60317;48.880;-0.862;2023-09-19T12:41:22;100085.53;;;21.50;60.00
72359;BME280;60317;48.880;-0.862;2023-09-19T12:43:48;100086.28;;;21.42;60.20
72359;BME280;60317;48.880;-0.862;2023-09-19T12:46:19;100085.41;;;21.52;59.88
72359;BME280;60317;48.880;-0.862;2023-09-19T12:48:49;100080.63;;;21.46;59.70
72359;BME280;60317;48.880;-0.862;2023-09-19T12:51:36;100088.53;;;21.47;58.99
72359;BME280;60317;48.880;-0.862;2023-09-19T12:54:02;100095.03;;;21.44;59.16
72359;BME280;60317;48.880;-0.862;2023-09-19T12:56:28;100084.00;;;21.48;59.15
72359;BME280;60317;48.880;-0.862;2023-09-19T12:59:05;100085.00;;;21.47;59.15
72359;BME280;60317;48.880;-0.862;2023-09-19T13:01:33;100088.53;;;21.47;59.41